Terminal Aerodrome Forecast
Issued by NWS

Home | Current Version | Previous Version | Text Only | Print | Product List | Glossary On
Versions: 1 2 3 4 5 6 7 8 9 10 11 12
000
FTAK31 PAJN 211138
TAFAWG
TAF
PAWG 211138Z 2112/2212 10005KT P6SM -SHSN OVC040
     FM211800 10005KT P6SM BKN040 OVC080
     FM220500 09003KT 6SM -SHSN OVC050 PROB30 2208/2212 2SM -SHSN BR
      BKN012 OVC020
      AMD LTD TO CLD VIS AND WIND 2112/2115=

USA.gov is the U.S. government's official web portal to all federal, state and local government web resources and services.